Terminal Aerodrome Forecast
Issued by NWS St Louis, MO

Home | Current Version | Previous Version | Text Only | Print | Product List | Glossary On
Versions: 1 2 3 4 5 6 7 8 9 10 11 12 13 14
000
FTUS43 KLSX 142200 AAB
TAFCOU
TAF AMD
KCOU 142225Z 1422/1518 33014G22KT 5SM -SN BR SCT015 OVC025
     FM142300 32015G22KT P6SM BKN045
     FM150600 32007KT P6SM SKC=

USA.gov is the U.S. government's official web portal to all federal, state and local government web resources and services.